Airport View

Enter AWOS ICAO identifier for current METAR.

ex. KFNL

KMXO 262255Z AUTO 30012KT 10SM -UP FEW027 BKN034 OVC042 M02/M05 A3018 RMK AO2

26 Feb 2020 22:56

Frequency: 119.275

Phone: 319-465-6155

Other Area AWOS: KDBQ - KCID - KIIB - KVTI

TAF AMD KDBQ 262001Z 2620/2718 35014G22KT P6SM OVC040 FM262300 33012KT P6SM OVC050 FM270100 32011KT P6SM BKN090